Auburn, AL

4:10 AM CDT on July 28, 2014 (GMT -0500)
Auburn-opelika-pitts (KAUO) Elev 774 ft | 32.62 °N, 85.43 °W | Change Station

Current weather conditions updated 15 minutes ago

Clear
Clear
75 °F
Feels Like 75 °F
N
6
Wind Variable Wind from SW

Today is forecast to be nearly the same temperature as yesterday. Afternoon thunderstorms.

Today
High -- | Low -- °F
--% Chance of Precip.
Yesterday
High -- | Low -- °F
Precip. -- in
5:53 AM 7:42 PM
New Moon, 2% visible
Pressure 30.02 in
Visibility 10.0 miles
Clouds Clear
Dew Point 70 °F
Humidity 83%
Rainfall 0.00 in
Snow Depth Not available.
UV 0 out of 12
Pollen 5.00 out of 12
Air Quality Not available.
Flu Activity Not available.
METAR KAUO 280855Z 22005KT 10SM CLR 24/21 A3002 RMK AO1 54000

More Conditions Fewer Conditions

Pressure 30.02 in
Visibility 10.0 miles
Clouds Clear
Dew Point 70 °F
Humidity 83%
Rainfall 0.00 in
Snow Depth Not available.
UV 0 out of 12
Pollen 5.00 out of 12
Air Quality Not available.
Flu Activity Not available.
METAR KAUO 280855Z 22005KT 10SM CLR 24/21 A3002 RMK AO1 54000

More Conditions Fewer Conditions

10-Day Weather Forecast

Almanac

Astronomy

Jul. 28, 2014 Rise Set
Actual Time 5:53 AM CDT 7:42 PM CDT
Civil Twilight 5:26 AM CDT 8:09 PM CDT
Nautical Twilight 4:53 AM CDT 8:42 PM CDT
Astronomical Twilight 4:18 AM CDT 9:17 PM CDT
Moon 7:25 AM CDT 8:34 PM CDT
Length of Visible Light 14h 43m
Length of Day
13h 49m
Tomorrow will be 1m 25s shorter.
New Moon, 2% of the Moon is Illuminated
Today
New Moon
Aug 3
First Quarter
Aug 10
Full
Aug 17
Last Quarter
Aug 25
New

Today's Extremes

State Highs State Lows

Community

WunderPhotos

Upload Photos

1,738,295 photos uploaded!

Nearby

Snow Depth

Station Depth Elevation
No new snow has been reported.

Earthquake Activity

City Distance Mag. Time & Date
No recent earthquake activity has been reported nearby.
Minimum magnitude displayed is 2.5.

Coastal Water Temperatures

Place Temperature
No Stations Reporting

Nearby Weather Stations

Station Location Temp. Heat Index Dew Point Humidity Wind Precip. Elev Updated Type
Auburn, AL 76.2 °F 76 °F 75 °F 95% WSW  at  0.0 mph - / hr 646 ft 3:59 AM CDT Normal
Opelika, AL - Highland Ave., Opelika, AL 76.1 °F 76 °F 73 °F 91% WSW  at  0.0 mph 0.00 in / hr 856 ft 4:09 AM CDT Rapid Fire
Opelika, Opelika, AL 77.0 °F 78 °F 71 °F 83% WSW  at  3.1 mph 0.00 in / hr 785 ft 4:09 AM CDT Rapid Fire
RAWS TUSKEGEE AL, Auburn, AL 78 °F 80 °F 73 °F 86% NNW  at  1 mph 0.00 in / hr 508 ft 3:26 AM CDT MADIS
Phenix City, Phenix City, AL 76.2 °F 76 °F 74 °F 93% East  at  0.0 mph 0.00 in / hr 433 ft 4:05 AM CDT Normal
Smiths Station, AL 75.9 °F 76 °F 73 °F 91% North  at  0.0 mph 0.00 in / hr 370 ft 5:05 AM EDT Normal

Show More Stations Show Fewer Stations